Andrews AFB, Maryland
Current Conditions -  °F | °C
As of 3:13 PM on Wednesday 26 Nov 2014 (Local Time) from KADW Reporting Station
Light Rain Light Rain  
Wind Chill: 24°   Ceiling: 600
Heat Index: 34°   Visibility: 9mi
Dew Point: 32°   Wind: 16mph
Humidity: 93%   Direction: 330°NNW
Pressure: 29.87"   Gusts: NA
Location:  38.8°N, 76.87°W
Report Text: KADW 262013Z AUTO 33014KT 9SM -RA OVC006 01/00 A2987 RMK AO2 UPB1956E2001 $
Loading
Personal Weather Stations






























Interactive Weather Map New forecast layout! Learn more

10-Day Weather Forecast

Advertisements
Track Severe Weather on mobile